Time;durP1;ratioP1;P1;durP2;ratioP2;P2;SDS_P1;SDS_P2;PMS_P1;PMS_P2;Temp;Humidity;BMP_temperature;BMP_pressure;BME280_temperature;BME280_humidity;BME280_pressure;Samples;Min_cycle;Max_cycle;Signal;HPM_P1;HPM_P2
2021/11/06 00:00:16;;;;;;;10.45;5.00;;;8.30;95.40;;;;;;4965750;28;20423;-74
2021/11/06 00:02:42;;;;;;;7.75;3.67;;;8.40;95.40;;;;;;4952804;28;20039;-74
2021/11/06 00:05:08;;;;;;;13.65;4.72;;;8.40;95.30;;;;;;4956823;28;20039;-75
2021/11/06 00:07:34;;;;;;;12.07;5.40;;;8.50;95.30;;;;;;4957495;28;20846;-75
2021/11/06 00:10:00;;;;;;;10.02;3.72;;;8.60;95.20;;;;;;4965548;28;20035;-74
2021/11/06 00:12:26;;;;;;;9.15;4.47;;;8.80;94.90;;;;;;4948932;28;20041;-75
2021/11/06 00:14:52;;;;;;;9.35;4.25;;;8.80;94.80;;;;;;4943999;28;20023;-74
2021/11/06 00:17:18;;;;;;;11.65;4.35;;;8.80;94.70;;;;;;4954487;28;20538;-75
2021/11/06 00:19:44;;;;;;;7.90;4.05;;;8.80;94.80;;;;;;4953792;28;20047;-74
2021/11/06 00:22:09;;;;;;;9.27;4.85;;;8.80;94.80;;;;;;4955542;28;20042;-75
2021/11/06 00:24:35;;;;;;;8.38;4.30;;;8.90;94.60;;;;;;4946111;28;20122;-75
2021/11/06 00:27:01;;;;;;;8.70;4.00;;;8.90;94.60;;;;;;4954079;28;20039;-74
2021/11/06 00:29:27;;;;;;;13.52;4.53;;;9.00;94.50;;;;;;4952248;28;20050;-75
2021/11/06 00:31:54;;;;;;;8.57;4.32;;;9.00;94.30;;;;;;4958387;28;20228;-75
2021/11/06 00:34:20;;;;;;;8.95;4.03;;;9.00;94.30;;;;;;4954669;28;20026;-75
2021/11/06 00:36:46;;;;;;;10.25;4.38;;;9.00;94.30;;;;;;4951510;28;20042;-76
2021/11/06 00:39:12;;;;;;;15.00;4.60;;;9.00;94.30;;;;;;4957255;28;20027;-75
2021/11/06 00:41:37;;;;;;;9.35;4.90;;;8.90;94.30;;;;;;4956472;28;20078;-75
2021/11/06 00:44:04;;;;;;;9.15;4.43;;;8.90;94.40;;;;;;4959245;28;20145;-75
2021/11/06 00:46:29;;;;;;;10.93;4.70;;;8.80;94.50;;;;;;4952587;28;20054;-75
2021/11/06 00:48:55;;;;;;;8.43;3.95;;;8.80;94.60;;;;;;4946765;28;20047;-75
2021/11/06 00:51:21;;;;;;;11.55;5.50;;;8.70;94.60;;;;;;4958745;28;20042;-75
2021/11/06 00:53:47;;;;;;;15.00;4.22;;;8.70;94.80;;;;;;4957021;28;20035;-75
2021/11/06 00:56:13;;;;;;;16.63;4.90;;;8.70;94.80;;;;;;4951893;28;20066;-75
2021/11/06 00:58:39;;;;;;;9.63;4.45;;;8.70;94.70;;;;;;4953105;28;20177;-75
2021/11/06 01:01:05;;;;;;;14.32;4.65;;;8.80;94.70;;;;;;4958775;28;20127;-75
2021/11/06 01:03:31;;;;;;;12.75;5.32;;;8.70;94.60;;;;;;4956915;28;20066;-74
2021/11/06 01:05:57;;;;;;;13.45;5.40;;;8.70;94.70;;;;;;4950488;28;20174;-75
2021/11/06 01:08:22;;;;;;;9.35;4.65;;;8.60;95.00;;;;;;4966536;28;20039;-75
2021/11/06 01:10:48;;;;;;;11.68;5.28;;;8.60;94.90;;;;;;4941765;28;20030;-75
2021/11/06 01:13:14;;;;;;;13.18;4.93;;;8.50;95.10;;;;;;4945372;28;20042;-74
2021/11/06 01:15:40;;;;;;;10.70;6.57;;;8.50;95.00;;;;;;4949104;28;20899;-75
2021/11/06 01:18:06;;;;;;;13.32;5.88;;;8.50;95.10;;;;;;4943951;28;20051;-75
2021/11/06 01:20:32;;;;;;;8.32;4.72;;;8.50;95.20;;;;;;4945443;28;20137;-75
2021/11/06 01:22:57;;;;;;;13.73;5.13;;;8.60;95.00;;;;;;4956804;28;20034;-75
2021/11/06 01:25:24;;;;;;;15.88;6.10;;;8.70;94.90;;;;;;4949155;28;20145;-75
2021/11/06 01:27:50;;;;;;;12.35;5.63;;;8.80;94.60;;;;;;4953542;28;20086;-75
2021/11/06 01:30:17;;;;;;;14.02;5.25;;;8.90;94.40;;;;;;4967989;28;20097;-75
2021/11/06 01:32:45;;;;;;;15.35;5.63;;;8.90;94.20;;;;;;4958697;28;20035;-75
2021/11/06 01:35:12;;;;;;;14.50;5.57;;;9.00;94.10;;;;;;4946076;28;20031;-75
2021/11/06 01:37:38;;;;;;;10.40;5.07;;;9.00;94.00;;;;;;4956509;28;20046;-75
2021/11/06 01:40:07;;;;;;;18.08;5.68;;;8.90;94.30;;;;;;4961255;28;20043;-75
2021/11/06 01:42:32;;;;;;;11.82;5.07;;;8.90;94.20;;;;;;4950048;28;20760;-75
2021/11/06 01:44:59;;;;;;;12.52;5.53;;;9.00;94.20;;;;;;4951653;28;20045;-75
2021/11/06 01:47:24;;;;;;;14.85;6.07;;;9.10;94.00;;;;;;4957859;28;20046;-75
2021/11/06 01:49:50;;;;;;;15.13;5.78;;;9.10;93.80;;;;;;4955141;28;20077;-75
2021/11/06 01:52:16;;;;;;;13.95;6.40;;;9.10;93.80;;;;;;4959091;28;20178;-74
2021/11/06 01:54:42;;;;;;;9.75;4.90;;;9.10;93.80;;;;;;4960077;28;20050;-75
2021/11/06 01:57:08;;;;;;;16.65;6.00;;;9.20;93.90;;;;;;4961600;28;21572;-75
2021/11/06 01:59:34;;;;;;;13.63;5.82;;;9.30;93.80;;;;;;4953352;28;20778;-74
2021/11/06 02:02:00;;;;;;;15.82;5.82;;;9.30;93.60;;;;;;4956430;28;20038;-74
2021/11/06 02:04:26;;;;;;;12.32;5.70;;;9.30;93.40;;;;;;4962131;28;20092;-74
2021/11/06 02:06:52;;;;;;;17.33;6.30;;;9.40;93.50;;;;;;4961332;28;20039;-75
2021/11/06 02:09:17;;;;;;;17.67;6.22;;;9.40;93.20;;;;;;4970621;28;20030;-74
2021/11/06 02:11:43;;;;;;;13.18;5.43;;;9.40;93.20;;;;;;4956182;28;20270;-75
2021/11/06 02:14:09;;;;;;;15.18;6.18;;;9.30;93.70;;;;;;4961954;28;20031;-75
2021/11/06 02:16:35;;;;;;;17.52;6.85;;;9.20;93.40;;;;;;4954237;28;20081;-75
2021/11/06 02:19:01;;;;;;;13.65;6.35;;;9.20;93.70;;;;;;4952420;28;20039;-74
2021/11/06 02:21:27;;;;;;;17.15;6.10;;;9.20;93.80;;;;;;4958438;28;20137;-75
2021/11/06 02:23:53;;;;;;;14.55;6.32;;;9.20;93.80;;;;;;4977697;28;20099;-75
2021/11/06 02:26:21;;;;;;;14.85;6.82;;;9.20;93.50;;;;;;4957265;28;20079;-75
2021/11/06 02:28:49;;;;;;;19.65;7.25;;;9.30;93.60;;;;;;4970399;28;20039;-75
2021/11/06 02:31:15;;;;;;;12.68;5.97;;;9.30;93.50;;;;;;4948577;28;20038;-75
2021/11/06 02:33:41;;;;;;;17.30;6.63;;;9.30;93.50;;;;;;4950897;28;20495;-74
2021/11/06 02:36:07;;;;;;;15.25;5.93;;;9.40;93.50;;;;;;4954730;28;20058;-75
2021/11/06 02:38:32;;;;;;;14.25;6.22;;;9.40;93.40;;;;;;4955947;28;20047;-75
2021/11/06 02:40:59;;;;;;;12.88;5.18;;;9.40;93.20;;;;;;4962117;28;20023;-74
2021/11/06 02:43:25;;;;;;;19.85;6.45;;;9.40;93.10;;;;;;4960752;28;20038;-75
2021/11/06 02:45:51;;;;;;;12.75;6.28;;;9.40;93.10;;;;;;4955604;28;20837;-75
2021/11/06 02:48:16;;;;;;;18.13;7.05;;;9.40;93.20;;;;;;4955756;28;20041;-75
2021/11/06 02:50:42;;;;;;;15.70;6.05;;;9.40;93.10;;;;;;4962692;28;20031;-75
2021/11/06 02:53:08;;;;;;;14.38;5.43;;;9.40;93.30;;;;;;4947152;28;20516;-74
2021/11/06 02:55:34;;;;;;;14.85;6.13;;;9.40;93.30;;;;;;4954082;28;20047;-74
2021/11/06 02:58:00;;;;;;;12.23;5.28;;;9.50;93.10;;;;;;4948350;28;20765;-75
2021/11/06 03:00:27;;;;;;;17.08;5.97;;;9.50;93.00;;;;;;4952977;28;20035;-75
2021/11/06 03:02:54;;;;;;;13.98;5.55;;;9.60;92.70;;;;;;4954096;28;20031;-75
2021/11/06 03:05:21;;;;;;;16.60;5.85;;;9.70;92.70;;;;;;4954107;28;20035;-75
2021/11/06 03:07:47;;;;;;;16.15;5.40;;;9.70;92.60;;;;;;4948591;28;20725;-74
2021/11/06 03:10:14;;;;;;;11.68;5.03;;;9.60;92.60;;;;;;4949684;28;20042;-75
2021/11/06 03:12:40;;;;;;;9.70;4.88;;;9.70;92.70;;;;;;4956240;28;20410;-75
2021/11/06 03:15:06;;;;;;;14.32;5.88;;;9.70;92.60;;;;;;4950661;28;20041;-75
2021/11/06 03:17:32;;;;;;;16.60;5.07;;;9.80;92.70;;;;;;4949506;28;20043;-75
2021/11/06 03:19:58;;;;;;;18.00;5.50;;;9.80;92.30;;;;;;4957198;28;20072;-74
2021/11/06 03:22:24;;;;;;;17.80;5.50;;;9.80;92.10;;;;;;4952281;28;20414;-75
2021/11/06 03:24:49;;;;;;;11.50;5.10;;;9.80;92.30;;;;;;4963850;28;20047;-75
2021/11/06 03:27:15;;;;;;;15.70;4.72;;;9.80;92.30;;;;;;4943929;28;20046;-75
2021/11/06 03:29:41;;;;;;;13.55;4.97;;;9.80;92.20;;;;;;4946934;28;20492;-74
2021/11/06 03:32:07;;;;;;;18.30;5.45;;;9.80;92.10;;;;;;4951603;28;20122;-75
2021/11/06 03:34:33;;;;;;;13.32;5.18;;;9.70;92.20;;;;;;4956948;28;20111;-75
2021/11/06 03:36:59;;;;;;;13.65;5.57;;;9.60;92.30;;;;;;4976633;28;20054;-74
2021/11/06 03:39:25;;;;;;;11.70;5.13;;;9.60;92.40;;;;;;4973475;28;20065;-75
2021/11/06 03:41:51;;;;;;;20.58;4.80;;;9.60;92.40;;;;;;4953284;28;20034;-75
2021/11/06 03:44:16;;;;;;;10.85;4.60;;;9.60;92.40;;;;;;4948637;28;20042;-74
2021/11/06 03:46:43;;;;;;;11.18;4.25;;;9.50;92.30;;;;;;4951783;28;20421;-74
2021/11/06 03:49:09;;;;;;;14.43;5.30;;;9.40;92.50;;;;;;4956746;28;20043;-75
2021/11/06 03:51:35;;;;;;;11.82;4.75;;;9.40;92.70;;;;;;4954725;28;20133;-74
2021/11/06 03:54:01;;;;;;;9.93;4.57;;;9.30;92.80;;;;;;4958183;28;20122;-75
2021/11/06 03:56:27;;;;;;;11.55;4.15;;;9.30;93.00;;;;;;4959541;28;20034;-75
2021/11/06 03:58:53;;;;;;;12.27;4.40;;;9.30;93.00;;;;;;4947926;28;20132;-75
2021/11/06 04:01:19;;;;;;;11.82;4.32;;;9.30;93.00;;;;;;4947960;28;20824;-74
2021/11/06 04:03:45;;;;;;;8.88;4.13;;;9.20;93.00;;;;;;4943584;28;20054;-75
2021/11/06 04:06:10;;;;;;;11.15;4.15;;;9.20;93.30;;;;;;4944687;28;20125;-75
2021/11/06 04:08:36;;;;;;;12.52;5.05;;;9.20;93.10;;;;;;4951409;28;20068;-74
2021/11/06 04:11:02;;;;;;;9.10;3.83;;;9.20;93.30;;;;;;4948623;28;20027;-75
2021/11/06 04:13:28;;;;;;;11.60;4.10;;;9.20;93.30;;;;;;4958924;28;20046;-75
2021/11/06 04:15:54;;;;;;;7.72;3.17;;;9.20;93.20;;;;;;4947733;28;20035;-75
2021/11/06 04:18:20;;;;;;;9.93;3.58;;;9.30;93.20;;;;;;4964451;28;20074;-75
2021/11/06 04:20:46;;;;;;;10.50;5.03;;;9.40;93.10;;;;;;4947870;28;20502;-75
2021/11/06 04:23:12;;;;;;;12.05;3.35;;;9.40;92.90;;;;;;4950415;28;20038;-75
2021/11/06 04:25:37;;;;;;;10.63;3.13;;;9.50;92.80;;;;;;4955592;28;20597;-75
2021/11/06 04:28:03;;;;;;;16.05;3.60;;;9.50;92.50;;;;;;4950375;28;20244;-74
2021/11/06 04:30:29;;;;;;;10.63;3.05;;;9.50;92.50;;;;;;4955301;28;20027;-75
2021/11/06 04:32:55;;;;;;;6.85;3.97;;;9.60;92.50;;;;;;4959620;28;20151;-75
2021/11/06 04:35:21;;;;;;;8.70;3.10;;;9.50;92.40;;;;;;4955596;28;20668;-74
2021/11/06 04:37:47;;;;;;;15.20;4.30;;;9.50;92.50;;;;;;4968929;28;20364;-74
2021/11/06 04:40:13;;;;;;;8.23;3.65;;;9.50;92.30;;;;;;4950363;28;20185;-74
2021/11/06 04:42:39;;;;;;;8.30;2.88;;;9.50;92.40;;;;;;4944914;28;20042;-74
2021/11/06 04:45:07;;;;;;;13.93;3.90;;;9.60;92.40;;;;;;4950988;28;20043;-74
2021/11/06 04:47:33;;;;;;;9.80;3.20;;;9.60;92.20;;;;;;4955027;28;20385;-74
2021/11/06 04:50:00;;;;;;;7.05;3.53;;;9.60;92.20;;;;;;4959848;28;20077;-74
2021/11/06 04:52:26;;;;;;;9.38;3.35;;;9.60;92.00;;;;;;4950707;28;20039;-75
2021/11/06 04:54:53;;;;;;;10.43;4.05;;;9.70;91.90;;;;;;4950825;28;20031;-75
2021/11/06 04:57:19;;;;;;;12.02;4.25;;;9.70;91.90;;;;;;4956706;28;20038;-75
2021/11/06 04:59:45;;;;;;;8.63;3.28;;;9.70;91.80;;;;;;4959918;28;20043;-75
2021/11/06 05:02:10;;;;;;;7.38;4.05;;;9.70;91.80;;;;;;4952888;28;20435;-75
2021/11/06 05:04:39;;;;;;;10.45;3.90;;;9.60;91.90;;;;;;4952696;28;20089;-75
2021/11/06 05:07:05;;;;;;;6.38;3.10;;;9.70;92.00;;;;;;4957761;28;20038;-74
2021/11/06 05:09:31;;;;;;;11.52;3.08;;;9.70;91.80;;;;;;4959190;28;20097;-75
2021/11/06 05:11:57;;;;;;;7.45;3.25;;;9.70;91.80;;;;;;4954540;28;20027;-75
2021/11/06 05:14:22;;;;;;;9.60;3.38;;;9.80;91.80;;;;;;4957378;28;20057;-75
2021/11/06 05:16:49;;;;;;;6.22;2.85;;;9.80;91.80;;;;;;4956505;28;20030;-75
2021/11/06 05:19:15;;;;;;;10.32;3.50;;;9.80;91.50;;;;;;4950174;28;20031;-75
2021/11/06 05:21:42;;;;;;;6.30;3.55;;;9.80;91.50;;;;;;4953204;28;20049;-75
2021/11/06 05:24:09;;;;;;;6.88;3.42;;;9.80;91.70;;;;;;4949689;28;20054;-75
2021/11/06 05:26:36;;;;;;;9.43;3.38;;;9.80;91.50;;;;;;4946074;28;20038;-75
2021/11/06 05:29:09;;;;;;;8.30;3.28;;;9.70;91.50;;;;;;4956290;28;20097;-74
2021/11/06 05:31:38;;;;;;;8.00;2.67;;;9.50;91.70;;;;;;4955439;28;20066;-75
2021/11/06 05:34:04;;;;;;;9.02;3.38;;;9.50;91.80;;;;;;4956248;28;20043;-75
2021/11/06 05:36:31;;;;;;;7.95;3.55;;;9.50;92.00;;;;;;4958687;28;20771;-74
2021/11/06 05:38:56;;;;;;;10.07;3.75;;;9.60;92.00;;;;;;4957300;28;20042;-75
2021/11/06 05:41:22;;;;;;;6.13;3.55;;;9.60;91.90;;;;;;4951776;28;20051;-75
2021/11/06 05:43:48;;;;;;;8.32;3.40;;;9.60;91.80;;;;;;4946586;28;20420;-75
2021/11/06 05:46:14;;;;;;;8.95;3.72;;;9.80;91.60;;;;;;4942250;28;20071;-75
2021/11/06 05:48:40;;;;;;;7.18;2.90;;;9.70;91.60;;;;;;4952238;28;20070;-75
2021/11/06 05:51:06;;;;;;;6.72;2.88;;;9.70;91.70;;;;;;4949589;28;20104;-75
2021/11/06 05:53:32;;;;;;;9.55;3.42;;;9.70;91.70;;;;;;4953893;28;20190;-75
2021/11/06 05:55:58;;;;;;;6.72;3.03;;;9.80;91.70;;;;;;4948697;28;20042;-75
2021/11/06 05:58:24;;;;;;;8.77;3.45;;;9.60;91.70;;;;;;4949594;28;20058;-75
2021/11/06 06:00:49;;;;;;;7.30;3.47;;;9.70;91.80;;;;;;4955377;28;20102;-75
2021/11/06 06:03:15;;;;;;;10.13;3.50;;;9.60;91.80;;;;;;4954993;28;20556;-75
2021/11/06 06:05:41;;;;;;;10.32;3.47;;;9.60;91.90;;;;;;4954791;28;20122;-75
2021/11/06 06:08:07;;;;;;;9.23;4.03;;;9.60;91.90;;;;;;4950885;28;20097;-75
2021/11/06 06:10:32;;;;;;;8.73;3.78;;;9.60;91.80;;;;;;4944820;28;20038;-75
2021/11/06 06:12:58;;;;;;;7.80;3.50;;;9.60;91.80;;;;;;4955612;28;20031;-75
2021/11/06 06:15:24;;;;;;;11.55;3.38;;;9.60;91.90;;;;;;4952510;28;20145;-75
2021/11/06 06:17:51;;;;;;;12.88;4.10;;;9.70;91.80;;;;;;4951396;28;20035;-74
2021/11/06 06:20:18;;;;;;;10.70;3.70;;;9.70;91.70;;;;;;4945747;28;20089;-75
2021/11/06 06:22:45;;;;;;;6.75;3.47;;;9.60;91.70;;;;;;4951032;28;20038;-75
2021/11/06 06:25:14;;;;;;;7.32;3.75;;;9.70;91.70;;;;;;4951607;28;20121;-75
2021/11/06 06:27:40;;;;;;;7.63;2.80;;;9.80;91.70;;;;;;4951200;28;20046;-75
2021/11/06 06:30:10;;;;;;;8.15;3.58;;;9.90;91.90;;;;;;4948578;28;20145;-75
2021/11/06 06:32:37;;;;;;;8.18;3.30;;;9.90;91.30;;;;;;4956986;28;20126;-75
2021/11/06 06:35:03;;;;;;;5.55;3.72;;;10.00;91.60;;;;;;4951500;28;20838;-76
2021/11/06 06:37:29;;;;;;;7.63;2.88;;;10.00;91.20;;;;;;4958340;28;20047;-75
2021/11/06 06:39:55;;;;;;;7.63;3.40;;;10.00;91.00;;;;;;4961302;28;20050;-75
2021/11/06 06:42:23;;;;;;;8.50;3.55;;;10.10;90.90;;;;;;4972007;28;20070;-75
2021/11/06 06:44:49;;;;;;;9.18;3.35;;;10.10;90.90;;;;;;4958272;28;20049;-75
2021/11/06 06:47:15;;;;;;;11.63;3.13;;;10.10;90.90;;;;;;4957458;28;20483;-75
2021/11/06 06:49:41;;;;;;;7.47;3.13;;;10.20;90.80;;;;;;4956785;28;20043;-75
2021/11/06 06:52:08;;;;;;;6.25;3.47;;;10.40;90.30;;;;;;4956590;28;20042;-75
2021/11/06 06:54:33;;;;;;;8.65;3.47;;;10.50;90.20;;;;;;4956005;28;20027;-75
2021/11/06 06:56:59;;;;;;;9.20;3.70;;;10.60;89.70;;;;;;4954285;28;20034;-75
2021/11/06 06:59:25;;;;;;;12.20;3.92;;;10.80;89.10;;;;;;4953267;28;20039;-75
2021/11/06 07:01:50;;;;;;;7.47;3.22;;;10.70;87.80;;;;;;4955094;28;20042;-75
2021/11/06 07:04:16;;;;;;;12.02;3.78;;;10.70;88.60;;;;;;4957359;28;20062;-75
2021/11/06 07:06:42;;;;;;;9.93;4.10;;;10.70;88.70;;;;;;4962474;28;20213;-75
2021/11/06 07:09:09;;;;;;;5.50;3.65;;;10.70;88.10;;;;;;4959098;28;20467;-75
2021/11/06 07:11:34;;;;;;;6.68;3.63;;;10.70;88.40;;;;;;4958675;28;20053;-75
2021/11/06 07:14:00;;;;;;;8.43;3.60;;;10.70;88.70;;;;;;4951293;28;20031;-76
2021/11/06 07:16:27;;;;;;;6.35;4.00;;;10.80;88.80;;;;;;4945265;28;20054;-75
2021/11/06 07:18:53;;;;;;;8.38;4.28;;;10.90;87.80;;;;;;4954347;28;20054;-75
2021/11/06 07:21:19;;;;;;;9.18;3.75;;;10.90;87.50;;;;;;4960842;28;20404;-75
2021/11/06 07:23:44;;;;;;;5.97;3.88;;;10.90;87.00;;;;;;4952882;28;20051;-75
2021/11/06 07:26:10;;;;;;;9.95;4.70;;;11.00;87.20;;;;;;4959612;28;20047;-75
2021/11/06 07:28:36;;;;;;;7.93;4.63;;;11.00;86.40;;;;;;4959262;28;20039;-75
2021/11/06 07:31:02;;;;;;;9.40;4.32;;;10.80;86.60;;;;;;4955075;28;20039;-75
2021/11/06 07:33:28;;;;;;;10.50;5.68;;;10.70;87.10;;;;;;4952842;28;20102;-75
2021/11/06 07:35:54;;;;;;;11.77;6.70;;;10.60;87.60;;;;;;4965831;28;20039;-76
2021/11/06 07:38:19;;;;;;;8.65;4.93;;;10.70;87.60;;;;;;4959050;28;20480;-75
2021/11/06 07:40:45;;;;;;;10.32;4.45;;;10.70;88.00;;;;;;4953784;28;20113;-75
2021/11/06 07:43:11;;;;;;;10.63;5.93;;;10.80;87.50;;;;;;4952166;28;20093;-75
2021/11/06 07:45:38;;;;;;;8.80;4.95;;;10.90;86.70;;;;;;4949757;28;20046;-75
2021/11/06 07:48:04;;;;;;;17.13;8.07;;;10.90;86.20;;;;;;4954595;28;20039;-75
2021/11/06 07:50:30;;;;;;;12.13;5.97;;;10.90;86.10;;;;;;4952372;28;20046;-75
2021/11/06 07:52:56;;;;;;;23.23;10.95;;;11.00;86.30;;;;;;4972513;28;20034;-75
2021/11/06 07:55:22;;;;;;;15.73;8.75;;;11.00;85.50;;;;;;4949187;28;20039;-75
2021/11/06 07:57:48;;;;;;;12.40;6.15;;;11.10;85.90;;;;;;4957375;28;20039;-75
2021/11/06 08:00:18;;;;;;;15.15;7.22;;;11.10;85.00;;;;;;4965885;28;20043;-75
2021/11/06 08:02:45;;;;;;;9.43;4.70;;;11.10;84.90;;;;;;4957986;28;20043;-75
2021/11/06 08:05:13;;;;;;;9.95;6.05;;;11.10;84.60;;;;;;4956411;28;20035;-75
2021/11/06 08:07:40;;;;;;;7.55;5.20;;;11.10;84.30;;;;;;4957494;28;20031;-75
2021/11/06 08:10:07;;;;;;;11.18;6.50;;;11.20;84.40;;;;;;4956016;28;20035;-75
2021/11/06 08:12:33;;;;;;;7.32;4.43;;;11.20;84.60;;;;;;4955556;28;20100;-75
2021/11/06 08:14:59;;;;;;;6.20;4.53;;;11.30;84.60;;;;;;4975971;28;20585;-75
2021/11/06 08:17:25;;;;;;;15.85;8.57;;;11.40;83.40;;;;;;4951817;28;20117;-75
2021/11/06 08:19:50;;;;;;;10.98;7.53;;;11.20;83.30;;;;;;4954553;28;20038;-76
2021/11/06 08:22:16;;;;;;;13.63;6.93;;;11.10;84.10;;;;;;4954431;28;20142;-75
2021/11/06 08:24:42;;;;;;;10.02;5.55;;;11.00;84.40;;;;;;4951556;28;20117;-76
2021/11/06 08:27:08;;;;;;;13.40;7.93;;;11.30;84.30;;;;;;4960520;28;20027;-76
2021/11/06 08:29:35;;;;;;;12.63;6.25;;;11.50;83.30;;;;;;4956944;28;20071;-75
2021/11/06 08:32:01;;;;;;;9.70;5.50;;;11.60;82.50;;;;;;4966235;28;20039;-75
2021/11/06 08:34:27;;;;;;;12.10;6.75;;;11.80;81.90;;;;;;4950419;28;20034;-74
2021/11/06 08:36:54;;;;;;;9.05;6.20;;;11.90;81.80;;;;;;4953607;28;20031;-69
2021/11/06 08:39:20;;;;;;;9.20;4.82;;;11.90;80.80;;;;;;4956402;28;20034;-64
2021/11/06 08:41:50;;;;;;;10.40;5.28;;;12.10;80.30;;;;;;4950859;28;20448;-72
2021/11/06 08:44:18;;;;;;;11.80;6.30;;;12.30;79.60;;;;;;4954501;28;20114;-71
2021/11/06 08:46:45;;;;;;;8.95;5.35;;;12.20;79.40;;;;;;4955862;28;20050;-72
2021/11/06 08:49:12;;;;;;;12.25;7.10;;;12.40;79.30;;;;;;4958154;28;20039;-72
2021/11/06 08:51:38;;;;;;;10.75;6.93;;;12.70;77.60;;;;;;4956079;28;20849;-76
2021/11/06 08:54:04;;;;;;;10.50;6.28;;;12.50;76.40;;;;;;4955328;28;20039;-71
2021/11/06 08:56:30;;;;;;;9.30;4.95;;;12.80;76.40;;;;;;4957940;28;20082;-76
2021/11/06 08:58:56;;;;;;;17.45;7.65;;;12.80;76.80;;;;;;4971690;28;20046;-72
2021/11/06 09:01:23;;;;;;;34.33;13.13;;;12.80;76.80;;;;;;4953989;28;20049;-67
2021/11/06 09:03:48;;;;;;;34.67;11.38;;;12.80;76.60;;;;;;4953899;28;20042;-68
2021/11/06 09:06:14;;;;;;;32.78;10.13;;;12.80;77.90;;;;;;4974826;28;20050;-71
2021/11/06 09:08:43;;;;;;;61.88;16.30;;;12.60;76.80;;;;;;4951307;28;20123;-63
2021/11/06 09:11:11;;;;;;;52.33;12.93;;;12.50;77.80;;;;;;4951060;28;20062;-63
2021/11/06 09:13:38;;;;;;;27.38;8.20;;;12.90;76.70;;;;;;4950794;28;20023;-63
2021/11/06 09:16:05;;;;;;;31.58;9.30;;;13.50;73.60;;;;;;4958160;28;20043;-68
2021/11/06 09:18:32;;;;;;;35.90;11.40;;;13.70;71.30;;;;;;4954648;28;20037;-67
2021/11/06 09:20:58;;;;;;;25.38;8.27;;;14.00;71.50;;;;;;4950847;28;20821;-68
2021/11/06 09:23:24;;;;;;;22.35;8.43;;;13.80;71.70;;;;;;4950774;28;20050;-69
2021/11/06 09:25:51;;;;;;;14.25;6.72;;;14.00;71.40;;;;;;4958647;28;20830;-67
2021/11/06 09:28:17;;;;;;;6.00;3.65;;;14.00;70.90;;;;;;4953119;28;20047;-69
2021/11/06 09:30:42;;;;;;;17.88;7.13;;;14.20;70.70;;;;;;4955543;28;20031;-67
2021/11/06 09:33:08;;;;;;;15.63;7.22;;;14.10;70.50;;;;;;4949003;28;20088;-67
2021/11/06 09:35:34;;;;;;;12.77;5.95;;;13.90;71.70;;;;;;4956303;28;20034;-67
2021/11/06 09:38:00;;;;;;;17.70;6.72;;;14.30;71.40;;;;;;4951830;28;20046;-66
2021/11/06 09:40:26;;;;;;;33.58;10.93;;;14.40;69.10;;;;;;4954101;28;20042;-67
2021/11/06 09:42:52;;;;;;;24.58;7.55;;;14.50;69.20;;;;;;4959226;28;20043;-67
2021/11/06 09:45:18;;;;;;;29.92;9.85;;;14.20;68.90;;;;;;4947962;28;20043;-71
2021/11/06 09:47:45;;;;;;;40.67;12.70;;;14.00;70.60;;;;;;4953088;28;20053;-71
2021/11/06 09:50:19;;;;;;;20.30;9.82;;;13.90;72.40;;;;;;4956391;28;20043;-72
2021/11/06 09:52:46;;;;;;;6.95;3.42;;;13.60;71.90;;;;;;4957259;28;20647;-71
2021/11/06 09:55:15;;;;;;;8.30;5.28;;;13.60;73.20;;;;;;4949190;28;20526;-72
2021/11/06 09:57:41;;;;;;;6.25;3.40;;;13.70;73.30;;;;;;4951871;28;20062;-71
2021/11/06 10:00:08;;;;;;;5.70;2.97;;;13.90;73.40;;;;;;4968075;28;20153;-65
2021/11/06 10:02:38;;;;;;;5.85;2.85;;;14.00;73.10;;;;;;4952646;28;20116;-69
2021/11/06 10:05:04;;;;;;;6.43;2.65;;;14.00;71.80;;;;;;4953989;28;20034;-72
2021/11/06 10:07:30;;;;;;;10.88;2.88;;;14.10;72.20;;;;;;4948816;28;20058;-71
2021/11/06 10:09:58;;;;;;;4.88;2.85;;;14.20;70.80;;;;;;4952321;28;20034;-73
2021/11/06 10:12:25;;;;;;;6.32;3.08;;;14.50;71.50;;;;;;4952211;28;20039;-72
2021/11/06 10:15:08;;;;;;;5.82;3.05;;;14.60;69.30;;;;;;4955003;28;20031;-68
2021/11/06 10:17:35;;;;;;;6.45;2.63;;;14.50;69.40;;;;;;4956783;28;20038;-69
2021/11/06 10:20:24;;;;;;;4.55;2.47;;;14.70;70.70;;;;;;4955427;28;20030;-69
2021/11/06 10:22:52;;;;;;;11.13;4.95;;;14.50;69.80;;;;;;4958971;28;20043;-68
2021/11/06 10:25:21;;;;;;;5.90;2.90;;;14.50;70.90;;;;;;4957098;28;20142;-67
2021/11/06 10:27:59;;;;;;;5.50;3.40;;;14.60;69.60;;;;;;4956331;28;20038;-68
2021/11/06 10:30:28;;;;;;;7.65;2.83;;;14.50;69.10;;;;;;4957123;28;20130;-72
2021/11/06 10:33:12;;;;;;;4.45;2.88;;;14.40;70.50;;;;;;4962547;28;20518;-69
2021/11/06 10:35:47;;;;;;;6.03;2.25;;;14.20;70.10;;;;;;4975683;28;20422;-69
2021/11/06 10:38:15;;;;;;;4.63;2.63;;;14.00;70.50;;;;;;4958837;28;20026;-69
2021/11/06 10:40:44;;;;;;;3.13;2.30;;;13.70;72.10;;;;;;4961222;28;20594;-69
2021/11/06 10:43:12;;;;;;;2.80;2.22;;;13.60;72.60;;;;;;4959101;28;20046;-71
2021/11/06 10:45:46;;;;;;;6.88;2.35;;;13.50;72.80;;;;;;4960128;28;20026;-67
2021/11/06 10:48:18;;;;;;;3.40;2.00;;;13.30;73.70;;;;;;4959224;28;20027;-73
2021/11/06 10:50:58;;;;;;;4.43;3.15;;;13.30;74.50;;;;;;4974120;28;20597;-67
2021/11/06 10:53:50;;;;;;;5.03;2.75;;;13.30;73.60;;;;;;4959814;28;20041;-69
2021/11/06 10:56:27;;;;;;;3.25;2.20;;;13.20;73.80;;;;;;4956866;28;20106;-72
2021/11/06 10:58:55;;;;;;;3.28;2.20;;;12.80;74.90;;;;;;4959092;28;20034;-67
2021/11/06 11:01:34;;;;;;;3.20;2.17;;;12.70;75.80;;;;;;4960911;28;20486;-67
2021/11/06 11:04:17;;;;;;;3.08;2.10;;;12.60;76.50;;;;;;4959003;28;20041;-72
2021/11/06 11:13:17;;;;;;;4.10;1.88;;;12.50;76.20;;;;;;5036368;28;20373;-74
2021/11/06 11:15:49;;;;;;;9.63;2.85;;;12.40;78.30;;;;;;5032286;28;20040;-68
2021/11/06 11:18:38;;;;;;;6.65;2.10;;;12.50;78.30;;;;;;5036663;28;20424;-69
2021/11/06 11:21:08;;;;;;;3.78;2.00;;;12.80;76.80;;;;;;5030281;28;20037;-65
2021/11/06 11:23:35;;;;;;;6.07;2.50;;;13.10;75.70;;;;;;5030004;28;20033;-65
2021/11/06 11:26:01;;;;;;;5.75;3.03;;;13.20;74.70;;;;;;5039847;28;20033;-66
2021/11/06 11:28:27;;;;;;;8.82;3.55;;;13.50;74.70;;;;;;5035909;28;20047;-69
2021/11/06 11:30:54;;;;;;;6.53;3.30;;;13.70;73.80;;;;;;5035711;28;20028;-67
2021/11/06 11:33:22;;;;;;;6.13;2.90;;;13.80;72.70;;;;;;5038511;28;20041;-66
2021/11/06 11:35:50;;;;;;;4.70;2.50;;;14.00;72.70;;;;;;5034518;28;20497;-68
2021/11/06 11:38:18;;;;;;;9.25;6.38;;;14.20;72.00;;;;;;5039927;28;20116;-66
2021/11/06 11:41:04;;;;;;;28.40;13.55;;;14.20;70.80;;;;;;5036385;28;20031;-66
2021/11/06 11:43:50;;;;;;;75.03;30.33;;;14.20;72.10;;;;;;5033053;28;20173;-66
2021/11/06 11:46:26;;;;;;;38.35;14.82;;;14.10;71.40;;;;;;5034813;28;20401;-67
2021/11/06 11:48:53;;;;;;;39.47;21.10;;;14.10;71.90;;;;;;5027751;28;20037;-66
2021/11/06 11:51:31;;;;;;;5.13;4.03;;;13.90;71.20;;;;;;5029671;28;20045;-66
2021/11/06 11:54:09;;;;;;;11.50;6.53;;;13.80;72.50;;;;;;5035169;28;20044;-67
2021/11/06 11:56:37;;;;;;;11.98;8.88;;;13.50;72.40;;;;;;5032301;28;20041;-67
2021/11/06 11:59:07;;;;;;;7.95;6.10;;;13.50;73.10;;;;;;5031443;28;20033;-67
2021/11/06 12:01:33;;;;;;;10.80;7.55;;;13.40;73.90;;;;;;5030771;28;20040;-68
2021/11/06 12:04:15;;;;;;;7.38;5.13;;;13.40;73.00;;;;;;5032611;28;20788;-70
2021/11/06 12:06:43;;;;;;;17.33;11.00;;;13.50;73.80;;;;;;5030784;28;20022;-66
2021/11/06 12:09:12;;;;;;;9.55;6.88;;;13.70;73.70;;;;;;5031691;28;20036;-69
2021/11/06 12:11:48;;;;;;;10.10;6.43;;;13.70;72.60;;;;;;5032899;28;20770;-68
2021/11/06 12:14:21;;;;;;;13.60;7.85;;;13.70;73.10;;;;;;5028347;28;20052;-66
2021/11/06 12:17:05;;;;;;;11.82;6.72;;;13.60;73.60;;;;;;5031664;28;20032;-68
2021/11/06 12:19:50;;;;;;;20.88;9.75;;;13.70;73.80;;;;;;5030389;28;20109;-68
2021/11/06 12:22:33;;;;;;;16.90;9.23;;;14.00;73.40;;;;;;5033709;28;20037;-72
2021/11/06 12:25:16;;;;;;;9.48;5.65;;;14.00;72.50;;;;;;5018415;28;21042;-67
2021/11/06 12:27:53;;;;;;;6.47;2.97;;;13.90;72.00;;;;;;5014657;28;20137;-67
2021/11/06 12:30:28;;;;;;;11.02;5.22;;;13.50;72.40;;;;;;5020822;28;20037;-68
2021/11/06 12:32:54;;;;;;;8.57;5.00;;;13.70;73.90;;;;;;5019040;28;20139;-67
2021/11/06 12:35:25;;;;;;;10.35;4.72;;;13.90;74.00;;;;;;5016964;28;20036;-67
2021/11/06 12:38:00;;;;;;;8.32;4.65;;;14.00;72.60;;;;;;5016871;28;20425;-67
2021/11/06 12:40:33;;;;;;;15.48;9.07;;;14.00;72.40;;;;;;5017115;28;20029;-66
2021/11/06 12:43:17;;;;;;;14.85;8.57;;;14.10;72.80;;;;;;5017983;28;20041;-67
2021/11/06 12:45:47;;;;;;;9.80;5.13;;;14.30;72.50;;;;;;5019216;28;20488;-65
2021/11/06 12:48:17;;;;;;;6.15;4.53;;;14.10;72.10;;;;;;5016470;28;20021;-67
2021/11/06 12:50:48;;;;;;;7.22;4.05;;;14.10;71.50;;;;;;5025977;28;20037;-69
2021/11/06 12:53:29;;;;;;;10.25;8.20;;;14.00;72.20;;;;;;5018290;28;20029;-68